Time;durP1;ratioP1;P1;durP2;ratioP2;P2;SDS_P1;SDS_P2;PMS_P1;PMS_P2;Temp;Humidity;BMP_temperature;BMP_pressure;BME280_temperature;BME280_humidity;BME280_pressure;Samples;Min_cycle;Max_cycle;Signal;HPM_P1;HPM_P2
2021/05/26 00:00:06;;;;;;;2.72;1.80;;;9.10;96.90;;;;;;4978715;28;20036;-79
2021/05/26 00:02:31;;;;;;;2.05;1.45;;;9.10;96.90;;;;;;4962568;28;20508;-79
2021/05/26 00:04:57;;;;;;;3.40;1.80;;;9.10;96.90;;;;;;4995289;28;20030;-79
2021/05/26 00:07:22;;;;;;;2.00;0.98;;;9.00;96.90;;;;;;4978898;28;20018;-79
2021/05/26 00:09:48;;;;;;;8.50;2.10;;;9.00;96.90;;;;;;4993837;28;20057;-79
2021/05/26 00:12:13;;;;;;;2.95;1.42;;;9.00;96.80;;;;;;4983141;28;20029;-79
2021/05/26 00:14:39;;;;;;;6.25;2.33;;;9.00;96.80;;;;;;4982179;28;20034;-79
2021/05/26 00:17:05;;;;;;;7.97;2.45;;;8.90;96.70;;;;;;4976833;28;20026;-78
2021/05/26 00:19:31;;;;;;;4.10;2.25;;;8.90;96.80;;;;;;4975466;28;20050;-79
2021/05/26 00:21:56;;;;;;;5.20;2.25;;;8.90;96.80;;;;;;4994320;28;20053;-79
2021/05/26 00:24:22;;;;;;;6.43;2.00;;;8.80;96.80;;;;;;4992753;28;20026;-79
2021/05/26 00:26:47;;;;;;;8.60;2.05;;;8.80;96.80;;;;;;4965015;28;20120;-79
2021/05/26 00:29:13;;;;;;;2.95;1.73;;;8.80;96.70;;;;;;4976401;28;20516;-79
2021/05/26 00:31:39;;;;;;;2.83;1.65;;;8.80;96.80;;;;;;4991991;28;20121;-79
2021/05/26 00:34:04;;;;;;;4.10;2.03;;;8.70;97.20;;;;;;4975426;28;20401;-78
2021/05/26 00:36:30;;;;;;;5.43;1.77;;;8.70;96.90;;;;;;4997786;28;20040;-79
2021/05/26 00:38:56;;;;;;;6.03;1.83;;;8.70;96.90;;;;;;4975333;28;20547;-79
2021/05/26 00:41:27;;;;;;;3.58;1.75;;;8.60;96.80;;;;;;4995454;28;20034;-78
2021/05/26 00:43:53;;;;;;;1.60;1.35;;;8.60;96.90;;;;;;4963330;28;20034;-79
2021/05/26 00:46:18;;;;;;;3.58;1.55;;;8.60;96.90;;;;;;4964232;28;20466;-79
2021/05/26 00:48:44;;;;;;;3.08;1.80;;;8.60;96.90;;;;;;4996480;28;20042;-79
2021/05/26 00:51:09;;;;;;;2.88;1.77;;;8.60;96.90;;;;;;4960363;28;20030;-78
2021/05/26 00:53:35;;;;;;;2.25;1.40;;;8.60;96.90;;;;;;4977977;28;20041;-79
2021/05/26 00:56:01;;;;;;;8.38;1.45;;;8.50;96.90;;;;;;4968310;28;20031;-78
2021/05/26 00:58:26;;;;;;;4.43;1.75;;;8.50;96.90;;;;;;4977319;28;20589;-78
2021/05/26 01:00:52;;;;;;;6.55;1.92;;;8.50;96.80;;;;;;4959063;28;20042;-78
2021/05/26 01:03:18;;;;;;;4.03;1.65;;;8.50;96.90;;;;;;4974530;28;20041;-79
2021/05/26 01:05:44;;;;;;;2.70;1.83;;;8.50;97.00;;;;;;4978389;28;20394;-79
2021/05/26 01:08:09;;;;;;;4.43;1.73;;;8.50;97.00;;;;;;4991313;28;20031;-79
2021/05/26 01:10:35;;;;;;;7.85;2.58;;;8.40;97.00;;;;;;4977910;28;20482;-79
2021/05/26 01:13:00;;;;;;;7.18;2.17;;;8.40;97.00;;;;;;4968455;28;20058;-79
2021/05/26 01:15:26;;;;;;;4.00;2.05;;;8.40;97.00;;;;;;4978246;28;20030;-79
2021/05/26 01:17:52;;;;;;;6.38;1.73;;;8.40;97.10;;;;;;4990057;28;20074;-78
2021/05/26 01:20:25;;;;;;;5.93;2.22;;;8.40;97.20;;;;;;4978938;28;20419;-79
2021/05/26 01:22:51;;;;;;;4.72;2.03;;;8.40;97.20;;;;;;4990652;28;20032;-79
2021/05/26 01:25:16;;;;;;;4.55;2.38;;;8.40;97.30;;;;;;4989904;28;20027;-78
2021/05/26 01:27:42;;;;;;;5.25;2.20;;;8.40;97.50;;;;;;4978373;28;20029;-78
2021/05/26 01:30:08;;;;;;;2.25;1.25;;;8.40;97.30;;;;;;4991795;28;20436;-79
2021/05/26 01:32:52;;;;;;;3.95;1.90;;;8.40;97.30;;;;;;4993545;28;20512;-79
2021/05/26 01:35:17;;;;;;;2.70;1.80;;;8.40;97.30;;;;;;4968262;28;20406;-79
2021/05/26 01:37:45;;;;;;;5.40;2.60;;;8.50;97.40;;;;;;4997017;28;20041;-78
2021/05/26 01:40:12;;;;;;;7.70;2.70;;;8.50;97.50;;;;;;4979052;28;20474;-78
2021/05/26 01:42:38;;;;;;;9.80;2.65;;;8.50;97.40;;;;;;4980365;28;20547;-79
2021/05/26 01:45:05;;;;;;;6.43;2.60;;;8.50;97.30;;;;;;4995579;28;20050;-79
2021/05/26 01:47:31;;;;;;;4.45;1.88;;;8.60;97.30;;;;;;4995028;28;20034;-79
2021/05/26 01:49:56;;;;;;;5.25;2.67;;;8.60;97.30;;;;;;4989069;28;20026;-79
2021/05/26 01:52:22;;;;;;;9.10;2.88;;;8.60;97.40;;;;;;4960292;28;20027;-78
2021/05/26 01:54:47;;;;;;;8.07;2.78;;;8.60;97.40;;;;;;4996540;28;20033;-79
2021/05/26 01:57:13;;;;;;;3.92;1.98;;;8.60;97.40;;;;;;4978166;28;20026;-78
2021/05/26 01:59:40;;;;;;;6.03;2.85;;;8.70;97.30;;;;;;4968007;28;20045;-78
2021/05/26 02:02:05;;;;;;;9.65;2.72;;;8.70;97.30;;;;;;4969507;28;20374;-79
2021/05/26 02:04:31;;;;;;;5.75;2.65;;;8.70;97.30;;;;;;5003604;28;20041;-79
2021/05/26 02:07:01;;;;;;;4.88;2.15;;;8.80;97.30;;;;;;4982286;28;20031;-79
2021/05/26 02:09:27;;;;;;;6.28;3.08;;;8.80;97.30;;;;;;4987617;28;20166;-79
2021/05/26 02:14:37;;;;;;;5.45;2.78;;;8.80;97.30;;;;;;4995711;28;20034;-79
2021/05/26 02:17:02;;;;;;;5.88;2.70;;;8.80;97.30;;;;;;4999331;28;20038;-78
2021/05/26 02:19:28;;;;;;;7.68;2.63;;;8.90;97.30;;;;;;4974053;28;20025;-79
2021/05/26 02:21:53;;;;;;;5.25;2.67;;;8.80;97.30;;;;;;4983927;28;20038;-78
2021/05/26 02:24:19;;;;;;;8.50;3.30;;;8.80;97.20;;;;;;4998354;28;20041;-79
2021/05/26 02:26:44;;;;;;;9.88;3.55;;;8.80;97.30;;;;;;4965367;28;20485;-79
2021/05/26 02:29:10;;;;;;;11.52;3.50;;;8.90;97.20;;;;;;4978089;28;20401;-78
2021/05/26 02:31:35;;;;;;;7.80;3.10;;;8.90;97.20;;;;;;4981950;28;20130;-79
2021/05/26 02:34:01;;;;;;;8.40;2.85;;;8.90;97.20;;;;;;4979347;28;20120;-78
2021/05/26 02:36:26;;;;;;;8.27;3.33;;;8.90;97.30;;;;;;4984249;28;20042;-79
2021/05/26 02:38:52;;;;;;;11.00;2.70;;;8.90;97.30;;;;;;4983142;28;20058;-78
2021/05/26 02:41:18;;;;;;;7.97;2.63;;;8.90;97.10;;;;;;4995338;28;20073;-78
2021/05/26 02:43:43;;;;;;;13.85;3.38;;;8.90;97.20;;;;;;4996854;28;20600;-79
2021/05/26 02:46:09;;;;;;;15.98;3.40;;;8.90;97.20;;;;;;4979844;28;20044;-79
2021/05/26 02:48:34;;;;;;;8.77;3.25;;;8.90;97.20;;;;;;4964325;28;20026;-79
2021/05/26 02:51:00;;;;;;;7.65;3.38;;;9.00;97.30;;;;;;4988333;28;20843;-78
2021/05/26 02:53:25;;;;;;;8.00;3.33;;;9.00;97.20;;;;;;4964368;28;20089;-79
2021/05/26 02:55:51;;;;;;;11.48;2.80;;;9.00;97.10;;;;;;4994296;28;20030;-79
2021/05/26 02:58:16;;;;;;;9.95;3.22;;;9.00;97.10;;;;;;4991775;28;20474;-79
2021/05/26 03:00:43;;;;;;;4.20;2.00;;;9.00;97.10;;;;;;4965918;28;20064;-79
2021/05/26 03:03:09;;;;;;;9.50;3.33;;;9.00;97.10;;;;;;4978696;28;20053;-78
2021/05/26 03:05:34;;;;;;;19.92;3.75;;;9.00;97.10;;;;;;4982176;28;20054;-79
2021/05/26 03:08:00;;;;;;;10.73;3.03;;;9.00;97.20;;;;;;4970689;28;20477;-79
2021/05/26 03:10:25;;;;;;;6.38;2.83;;;9.00;97.00;;;;;;4980285;28;20018;-79
2021/05/26 03:12:51;;;;;;;10.30;3.70;;;9.00;97.00;;;;;;4979660;28;20386;-79
2021/05/26 03:15:17;;;;;;;9.88;3.50;;;9.10;97.10;;;;;;4965291;28;20459;-78
2021/05/26 03:17:42;;;;;;;6.00;3.30;;;9.00;97.00;;;;;;4992428;28;20027;-79
2021/05/26 03:20:11;;;;;;;5.95;2.85;;;9.00;97.00;;;;;;4976478;28;20542;-80
2021/05/26 03:22:36;;;;;;;10.45;3.95;;;9.10;97.10;;;;;;4980026;28;20026;-79
2021/05/26 03:25:03;;;;;;;13.23;3.70;;;9.10;97.00;;;;;;4979309;28;20042;-79
2021/05/26 03:27:35;;;;;;;8.88;3.67;;;9.10;96.90;;;;;;4981131;28;20033;-79
2021/05/26 03:30:02;;;;;;;5.85;2.35;;;9.10;97.00;;;;;;4992823;28;20076;-79
2021/05/26 03:32:27;;;;;;;8.82;3.90;;;9.10;97.10;;;;;;4996721;28;20032;-79
2021/05/26 03:34:53;;;;;;;10.63;3.30;;;9.10;97.00;;;;;;4979979;28;20042;-79
2021/05/26 03:37:18;;;;;;;11.05;3.03;;;9.10;97.10;;;;;;4981514;28;20062;-79
2021/05/26 03:39:44;;;;;;;9.48;3.00;;;9.10;97.00;;;;;;4975250;28;20448;-78
2021/05/26 03:42:09;;;;;;;7.85;3.17;;;9.10;97.00;;;;;;4966059;28;20452;-79
2021/05/26 03:44:35;;;;;;;10.68;4.10;;;9.20;97.00;;;;;;4962762;28;20554;-79
2021/05/26 03:47:00;;;;;;;14.15;4.13;;;9.10;96.90;;;;;;4986789;28;20116;-78
2021/05/26 03:49:26;;;;;;;7.03;3.00;;;9.20;97.10;;;;;;4975163;28;20027;-78
2021/05/26 03:51:51;;;;;;;6.30;3.13;;;9.10;97.00;;;;;;4966353;28;20042;-79
2021/05/26 03:54:17;;;;;;;10.18;3.00;;;9.10;96.90;;;;;;4989646;28;20367;-79
2021/05/26 03:56:42;;;;;;;10.50;3.53;;;9.10;97.00;;;;;;4995430;28;20035;-79
2021/05/26 03:59:09;;;;;;;6.75;3.13;;;9.10;97.00;;;;;;4963430;28;20031;-79
2021/05/26 04:01:35;;;;;;;9.75;2.65;;;9.20;97.00;;;;;;4975743;28;20035;-79
2021/05/26 04:04:00;;;;;;;7.85;3.03;;;9.10;97.00;;;;;;4960955;28;20045;-78
2021/05/26 04:06:26;;;;;;;5.85;3.10;;;9.10;97.00;;;;;;4998793;28;20465;-79
2021/05/26 04:08:52;;;;;;;8.32;3.17;;;9.10;97.10;;;;;;4961130;28;20495;-78
2021/05/26 04:11:18;;;;;;;10.30;3.13;;;9.10;97.10;;;;;;4975128;28;20030;-80
2021/05/26 04:13:43;;;;;;;9.10;2.88;;;9.20;97.10;;;;;;4977434;28;20556;-79
2021/05/26 04:16:09;;;;;;;6.57;2.55;;;9.20;97.10;;;;;;4967505;28;20120;-79
2021/05/26 04:18:34;;;;;;;10.77;2.33;;;9.20;97.00;;;;;;4983860;28;20448;-79
2021/05/26 04:24:04;;;;;;;7.80;1.80;;;9.20;97.00;;;;;;4998882;28;20122;-79
2021/05/26 04:27:14;;;;;;;5.72;2.15;;;9.30;96.90;;;;;;4977556;28;20108;-77
2021/05/26 04:29:39;;;;;;;10.00;1.50;;;9.30;96.80;;;;;;4974449;28;20073;-78
2021/05/26 04:32:05;;;;;;;5.15;1.60;;;9.30;96.80;;;;;;4974302;28;20419;-78
2021/05/26 04:34:31;;;;;;;7.05;2.05;;;9.30;97.00;;;;;;4977269;28;20042;-78
2021/05/26 04:36:56;;;;;;;7.25;2.40;;;9.30;96.80;;;;;;4983510;28;20033;-77
2021/05/26 04:39:22;;;;;;;10.48;2.25;;;9.30;96.70;;;;;;4991766;28;20086;-77
2021/05/26 04:41:47;;;;;;;10.18;2.65;;;9.30;96.80;;;;;;4974439;28;20038;-78
2021/05/26 04:44:13;;;;;;;6.60;2.60;;;9.30;96.90;;;;;;4961944;28;20469;-78
2021/05/26 04:46:38;;;;;;;8.68;2.40;;;9.30;96.70;;;;;;4977595;28;20034;-78
2021/05/26 04:49:04;;;;;;;5.30;2.00;;;9.30;96.60;;;;;;4981909;28;20041;-77
2021/05/26 04:51:29;;;;;;;4.65;2.10;;;9.30;96.60;;;;;;4975730;28;20038;-78
2021/05/26 04:53:55;;;;;;;7.38;2.38;;;9.30;96.60;;;;;;4974944;28;20378;-77
2021/05/26 04:56:21;;;;;;;2.88;1.15;;;9.40;96.60;;;;;;4974045;28;20114;-78
2021/05/26 04:58:46;;;;;;;9.23;3.15;;;9.30;96.50;;;;;;4989581;28;20034;-78
2021/05/26 05:01:12;;;;;;;7.95;2.35;;;9.40;96.60;;;;;;4993495;28;20041;-77
2021/05/26 05:03:37;;;;;;;5.40;2.30;;;9.30;96.60;;;;;;4992200;28;20026;-78
2021/05/26 05:06:03;;;;;;;6.50;1.88;;;9.40;96.70;;;;;;4962407;28;20030;-78
2021/05/26 05:08:28;;;;;;;5.63;1.85;;;9.40;96.60;;;;;;4992305;28;20026;-78
2021/05/26 05:10:55;;;;;;;8.30;2.25;;;9.40;96.60;;;;;;4990740;28;20030;-78
2021/05/26 05:13:21;;;;;;;7.53;2.42;;;9.40;96.60;;;;;;4964259;28;20104;-78
2021/05/26 05:15:46;;;;;;;8.70;2.42;;;9.40;96.50;;;;;;4984683;28;20813;-78
2021/05/26 05:18:12;;;;;;;4.45;2.13;;;9.40;96.50;;;;;;4962553;28;20081;-78
2021/05/26 05:20:38;;;;;;;7.68;1.90;;;9.40;96.50;;;;;;4976854;28;20110;-78
2021/05/26 05:23:03;;;;;;;5.43;1.65;;;9.40;96.50;;;;;;4962797;28;20370;-78
2021/05/26 05:25:29;;;;;;;3.97;1.65;;;9.40;96.50;;;;;;4976861;28;20057;-79
2021/05/26 05:27:54;;;;;;;3.90;1.90;;;9.40;96.50;;;;;;4978910;28;20034;-79
2021/05/26 05:30:20;;;;;;;3.03;1.77;;;9.40;96.50;;;;;;4977621;28;20445;-78
2021/05/26 05:32:46;;;;;;;4.18;1.63;;;9.40;96.40;;;;;;4983564;28;20080;-78
2021/05/26 05:35:12;;;;;;;5.63;2.10;;;9.40;96.40;;;;;;4976201;28;20038;-78
2021/05/26 05:37:37;;;;;;;7.30;2.25;;;9.50;96.50;;;;;;4978896;28;20053;-78
2021/05/26 05:40:03;;;;;;;6.93;2.47;;;9.50;96.50;;;;;;4994966;28;20152;-78
2021/05/26 05:42:29;;;;;;;4.25;1.63;;;9.50;96.50;;;;;;4974705;28;20068;-78
2021/05/26 05:44:55;;;;;;;10.00;2.33;;;9.60;96.50;;;;;;4991700;28;20141;-78
2021/05/26 05:47:20;;;;;;;6.07;2.10;;;9.60;96.40;;;;;;4989738;28;20050;-78
2021/05/26 05:49:46;;;;;;;1.98;1.50;;;9.60;96.30;;;;;;4982249;28;20480;-78
2021/05/26 05:52:12;;;;;;;5.35;2.03;;;9.60;96.30;;;;;;4961491;28;20430;-78
2021/05/26 05:54:37;;;;;;;5.25;2.10;;;9.70;96.40;;;;;;4976109;28;20026;-78
2021/05/26 05:57:04;;;;;;;5.35;2.25;;;9.70;96.30;;;;;;4962893;28;20053;-79
2021/05/26 05:59:30;;;;;;;3.30;1.60;;;9.80;96.60;;;;;;4971878;28;20117;-78
2021/05/26 06:01:55;;;;;;;4.97;2.00;;;9.90;96.30;;;;;;4977683;28;20133;-78
2021/05/26 06:04:21;;;;;;;6.03;1.70;;;9.90;96.30;;;;;;4979738;28;20030;-79
2021/05/26 06:06:46;;;;;;;5.43;2.17;;;9.90;96.10;;;;;;4996200;28;20040;-78
2021/05/26 06:09:12;;;;;;;6.78;2.40;;;10.00;95.80;;;;;;4986112;28;20034;-78
2021/05/26 06:11:37;;;;;;;5.78;1.42;;;10.00;95.60;;;;;;4979674;28;20030;-78
2021/05/26 06:14:08;;;;;;;7.35;2.15;;;10.00;95.60;;;;;;4956691;28;20030;-78
2021/05/26 06:16:37;;;;;;;4.10;1.85;;;10.00;95.60;;;;;;4960455;28;20551;-78
2021/05/26 06:19:03;;;;;;;6.65;1.60;;;10.00;95.50;;;;;;4982811;28;20562;-78
2021/05/26 06:21:29;;;;;;;6.72;2.03;;;10.10;95.60;;;;;;4963628;28;20472;-78
2021/05/26 06:23:54;;;;;;;1.75;1.33;;;10.20;95.60;;;;;;4993036;28;20113;-78
2021/05/26 06:26:20;;;;;;;7.95;1.83;;;10.30;95.40;;;;;;4979803;28;20556;-78
2021/05/26 06:28:45;;;;;;;4.80;1.80;;;10.30;95.30;;;;;;4979696;28;20038;-78
2021/05/26 06:31:12;;;;;;;5.95;1.88;;;10.40;95.60;;;;;;4979033;28;20080;-78
2021/05/26 06:33:37;;;;;;;1.88;0.93;;;10.50;95.50;;;;;;4984698;28;20034;-78
2021/05/26 06:36:03;;;;;;;4.55;1.58;;;10.50;95.00;;;;;;4969618;28;20591;-78
2021/05/26 06:38:30;;;;;;;3.92;1.33;;;10.50;95.20;;;;;;4982718;28;20697;-78
2021/05/26 06:40:56;;;;;;;4.65;1.58;;;10.60;95.00;;;;;;4974581;28;20140;-78
2021/05/26 06:43:21;;;;;;;3.33;1.58;;;10.60;95.10;;;;;;4980093;28;20628;-78
2021/05/26 06:45:47;;;;;;;5.50;1.38;;;10.70;94.90;;;;;;4985762;28;20030;-78
2021/05/26 06:48:12;;;;;;;2.67;1.30;;;10.70;94.70;;;;;;4991539;28;20509;-78
2021/05/26 06:50:38;;;;;;;2.42;1.10;;;10.80;94.60;;;;;;5002242;28;20027;-78
2021/05/26 06:53:03;;;;;;;4.90;1.88;;;10.80;94.40;;;;;;4971415;28;20026;-78
2021/05/26 06:55:29;;;;;;;4.53;1.73;;;10.80;94.70;;;;;;4979811;28;20039;-78
2021/05/26 06:57:54;;;;;;;2.38;0.50;;;10.80;94.30;;;;;;4977246;28;20030;-78
2021/05/26 07:00:20;;;;;;;2.70;1.30;;;10.80;94.30;;;;;;4994914;28;20026;-78
2021/05/26 07:02:45;;;;;;;4.72;1.38;;;10.90;94.10;;;;;;4980486;28;20034;-78
2021/05/26 07:05:11;;;;;;;2.60;0.85;;;10.80;94.10;;;;;;4979846;28;20032;-78
2021/05/26 07:07:37;;;;;;;3.00;1.23;;;10.90;94.00;;;;;;4980198;28;20026;-78
2021/05/26 07:10:03;;;;;;;0.93;0.52;;;11.00;94.00;;;;;;4985030;28;20125;-77
2021/05/26 07:12:30;;;;;;;2.97;1.30;;;11.00;93.70;;;;;;4962191;28;20559;-78
2021/05/26 07:14:55;;;;;;;2.33;1.02;;;11.10;94.10;;;;;;4958014;28;20172;-78
2021/05/26 07:17:21;;;;;;;2.75;1.30;;;11.00;93.50;;;;;;4987276;28;20117;-78
2021/05/26 07:19:46;;;;;;;2.90;1.25;;;11.20;93.90;;;;;;4980157;28;20030;-78
2021/05/26 07:22:12;;;;;;;3.20;1.35;;;11.40;93.40;;;;;;4976467;28;20066;-78
2021/05/26 07:24:37;;;;;;;2.22;0.88;;;11.60;93.50;;;;;;4956230;28;20536;-78
2021/05/26 07:27:03;;;;;;;2.45;1.50;;;11.90;93.60;;;;;;4981424;28;20057;-78
2021/05/26 07:29:29;;;;;;;1.83;0.93;;;12.10;94.40;;;;;;4962299;28;20470;-78
2021/05/26 07:31:54;;;;;;;2.28;1.30;;;12.30;93.30;;;;;;4960176;28;20040;-78
2021/05/26 07:34:20;;;;;;;4.28;1.60;;;12.40;92.60;;;;;;4982009;28;20080;-78
2021/05/26 07:36:45;;;;;;;3.80;1.02;;;12.50;95.00;;;;;;4974636;28;20054;-78
2021/05/26 07:39:11;;;;;;;2.45;1.50;;;13.10;94.80;;;;;;4993749;28;20481;-78
2021/05/26 07:41:36;;;;;;;4.03;1.00;;;13.20;93.60;;;;;;4960677;28;20034;-78
2021/05/26 07:44:02;;;;;;;1.33;0.88;;;13.30;92.50;;;;;;4963882;28;20110;-78
2021/05/26 07:46:27;;;;;;;1.65;1.17;;;12.90;91.80;;;;;;4974974;28;20588;-78
2021/05/26 07:48:53;;;;;;;1.63;0.90;;;13.40;94.60;;;;;;4974336;28;20076;-79
2021/05/26 07:51:27;;;;;;;3.47;1.17;;;13.30;90.90;;;;;;4965620;28;20428;-78
2021/05/26 07:53:53;;;;;;;4.70;1.00;;;13.50;91.00;;;;;;4976644;28;20030;-78
2021/05/26 07:56:20;;;;;;;2.55;1.10;;;13.80;91.80;;;;;;4970905;28;20137;-78
2021/05/26 07:58:45;;;;;;;3.35;1.10;;;13.90;91.70;;;;;;4969457;28;20293;-78
2021/05/26 08:01:11;;;;;;;1.08;0.80;;;14.10;90.70;;;;;;4964220;28;20126;-78
2021/05/26 08:03:36;;;;;;;0.55;0.55;;;14.30;91.00;;;;;;4965664;28;20037;-78
2021/05/26 08:06:02;;;;;;;2.05;0.80;;;14.30;91.10;;;;;;4986562;28;20167;-78
2021/05/26 08:08:28;;;;;;;2.38;1.02;;;14.40;90.70;;;;;;4975528;28;20095;-78
2021/05/26 08:10:53;;;;;;;3.13;1.02;;;14.60;91.90;;;;;;4963910;28;20042;-78
2021/05/26 08:13:19;;;;;;;1.85;0.80;;;14.60;90.90;;;;;;4975635;28;20537;-78
2021/05/26 08:15:44;;;;;;;1.75;0.95;;;15.20;91.20;;;;;;4978536;28;20474;-78
2021/05/26 08:18:11;;;;;;;3.50;1.00;;;14.90;90.00;;;;;;4978653;28;20786;-78
2021/05/26 08:20:40;;;;;;;1.77;1.00;;;15.50;90.60;;;;;;4993741;28;20030;-78
2021/05/26 08:23:06;;;;;;;2.42;0.90;;;15.80;90.50;;;;;;4992397;28;20026;-79
2021/05/26 08:25:32;;;;;;;2.60;0.90;;;16.20;91.30;;;;;;4965479;28;20122;-78
2021/05/26 08:27:57;;;;;;;0.75;0.73;;;16.60;89.60;;;;;;4986387;28;20033;-78
2021/05/26 08:30:23;;;;;;;1.80;0.80;;;16.70;86.30;;;;;;4978571;28;20038;-79
2021/05/26 08:32:49;;;;;;;1.90;0.90;;;15.90;84.00;;;;;;4985733;28;20042;-79
2021/05/26 08:35:15;;;;;;;2.78;0.95;;;16.80;91.30;;;;;;5000279;28;20080;-79
2021/05/26 08:37:40;;;;;;;1.77;1.10;;;17.30;90.00;;;;;;4968728;28;20505;-79
2021/05/26 08:40:06;;;;;;;2.42;0.80;;;17.50;87.00;;;;;;4963232;28;20060;-79
2021/05/26 08:42:32;;;;;;;2.50;0.98;;;17.80;92.40;;;;;;4995298;28;20041;-79
2021/05/26 08:44:57;;;;;;;0.82;0.65;;;18.00;84.00;;;;;;4987638;28;20153;-79
2021/05/26 08:47:23;;;;;;;3.60;1.10;;;17.00;84.20;;;;;;4994717;28;20022;-79
2021/05/26 08:49:49;;;;;;;1.08;0.80;;;17.30;92.00;;;;;;4966738;28;20057;-79
2021/05/26 08:52:15;;;;;;;1.85;0.80;;;17.90;90.80;;;;;;4963502;28;20033;-79
2021/05/26 08:54:50;;;;;;;3.17;0.85;;;18.00;91.70;;;;;;4980144;28;20564;-79
2021/05/26 08:57:15;;;;;;;3.38;0.85;;;17.90;91.30;;;;;;4969662;28;20030;-79
2021/05/26 08:59:42;;;;;;;4.18;0.80;;;17.80;90.00;;;;;;4993120;28;20030;-79
2021/05/26 09:02:11;;;;;;;0.65;0.63;;;17.30;90.10;;;;;;4976559;28;20034;-79
2021/05/26 09:04:37;;;;;;;1.95;1.20;;;17.40;87.30;;;;;;4977395;28;20900;-79
2021/05/26 09:07:06;;;;;;;1.27;0.70;;;16.90;84.30;;;;;;4967692;28;20041;-79
2021/05/26 09:10:01;;;;;;;0.63;0.47;;;16.10;84.50;;;;;;4965234;28;20069;-79
2021/05/26 09:12:34;;;;;;;0.50;0.50;;;16.40;84.60;;;;;;4993349;28;20043;-79
2021/05/26 09:15:11;;;;;;;1.23;0.73;;;16.90;83.30;;;;;;4993953;28;20044;-79
2021/05/26 09:17:36;;;;;;;2.90;0.82;;;17.40;86.80;;;;;;4976755;28;20045;-79
2021/05/26 09:20:27;;;;;;;0.70;0.43;;;17.70;89.40;;;;;;4966978;28;20033;-79
2021/05/26 09:23:09;;;;;;;0.52;0.52;;;17.60;84.40;;;;;;4976577;28;20104;-79
2021/05/26 09:25:36;;;;;;;1.23;0.50;;;17.40;82.80;;;;;;4984799;28;20038;-79
2021/05/26 09:28:21;;;;;;;1.42;0.60;;;17.10;85.50;;;;;;4993134;28;20027;-79
2021/05/26 09:31:05;;;;;;;0.88;0.50;;;17.30;83.10;;;;;;4983008;28;20034;-79
2021/05/26 09:33:39;;;;;;;1.08;0.57;;;17.60;83.60;;;;;;4962812;28;20035;-79
2021/05/26 09:36:18;;;;;;;0.85;0.35;;;17.60;80.80;;;;;;4980610;28;20033;-79
2021/05/26 09:38:50;;;;;;;0.80;0.57;;;17.40;78.80;;;;;;4993266;28;20512;-79
2021/05/26 09:41:24;;;;;;;0.70;0.50;;;18.00;79.50;;;;;;4990056;28;20472;-79
2021/05/26 09:43:54;;;;;;;0.60;0.50;;;18.50;80.00;;;;;;4961113;28;20565;-79
2021/05/26 09:46:20;;;;;;;1.85;0.90;;;18.90;81.90;;;;;;4974180;28;20042;-79
2021/05/26 09:49:26;;;;;;;1.60;0.60;;;19.20;85.40;;;;;;5001985;28;20436;-79
2021/05/26 09:51:56;;;;;;;0.43;0.43;;;19.90;85.60;;;;;;4980457;28;20030;-79
2021/05/26 09:54:29;;;;;;;1.15;0.60;;;20.60;81.80;;;;;;4980255;28;20038;-80
2021/05/26 09:57:05;;;;;;;1.30;0.60;;;21.10;76.60;;;;;;4987442;28;20034;-79
2021/05/26 09:59:32;;;;;;;0.95;0.57;;;20.40;72.60;;;;;;4982304;28;20037;-79
2021/05/26 10:01:58;;;;;;;2.15;0.40;;;21.10;73.50;;;;;;4975923;28;20045;-79
2021/05/26 10:04:24;;;;;;;1.42;0.50;;;21.10;74.30;;;;;;4994974;28;20029;-79
2021/05/26 10:06:53;;;;;;;0.47;0.40;;;20.80;77.20;;;;;;4978766;28;20584;-79
2021/05/26 10:09:20;;;;;;;0.88;0.47;;;21.40;79.20;;;;;;4979609;28;20492;-79
2021/05/26 10:11:45;;;;;;;1.15;0.50;;;21.90;81.10;;;;;;4984862;28;20050;-80
2021/05/26 10:14:12;;;;;;;0.88;0.50;;;22.00;78.10;;;;;;4978939;28;20030;-80
2021/05/26 10:16:42;;;;;;;1.55;0.40;;;21.80;73.80;;;;;;4967387;28;20026;-80
2021/05/26 10:19:08;;;;;;;1.30;0.60;;;22.10;71.30;;;;;;4987781;28;20029;-80
2021/05/26 10:21:34;;;;;;;0.63;0.50;;;22.30;76.20;;;;;;4965267;28;20092;-80
2021/05/26 10:24:01;;;;;;;0.95;0.35;;;22.80;76.10;;;;;;4967007;28;20069;-81
2021/05/26 10:26:59;;;;;;;0.80;0.50;;;22.40;69.90;;;;;;4985084;28;20038;-80
2021/05/26 10:29:28;;;;;;;3.28;1.33;;;22.00;71.00;;;;;;4995884;28;20050;-81
2021/05/26 10:31:59;;;;;;;0.30;0.30;;;22.80;75.90;;;;;;4996592;28;20034;-81
2021/05/26 10:34:43;;;;;;;3.95;1.52;;;22.20;65.70;;;;;;4985994;28;20512;-81
2021/05/26 10:37:27;;;;;;;0.43;0.40;;;22.60;64.30;;;;;;5007978;28;20030;-82
2021/05/26 10:39:52;;;;;;;0.38;0.30;;;22.20;68.00;;;;;;4981677;28;20034;-81
2021/05/26 10:42:31;;;;;;;1.38;0.60;;;22.20;68.40;;;;;;4997057;28;20044;-81
2021/05/26 10:45:09;;;;;;;0.57;0.40;;;21.60;64.60;;;;;;4985040;28;20034;-81
2021/05/26 10:47:37;;;;;;;1.02;0.60;;;21.90;68.50;;;;;;4966789;28;20108;-82
2021/05/26 10:50:24;;;;;;;1.33;0.73;;;22.80;74.50;;;;;;4994996;28;20433;-82
2021/05/26 10:52:56;;;;;;;1.38;0.40;;;22.80;69.60;;;;;;4969633;28;20042;-81
2021/05/26 10:55:41;;;;;;;0.80;0.52;;;23.10;69.40;;;;;;4995165;28;20030;-82
2021/05/26 10:58:12;;;;;;;0.70;0.50;;;23.00;71.50;;;;;;4999466;28;20179;-82
2021/05/26 11:00:39;;;;;;;1.75;0.47;;;23.20;71.80;;;;;;4994586;28;20034;-81
2021/05/26 11:03:23;;;;;;;1.25;0.50;;;22.80;64.90;;;;;;4966733;28;20571;-81
2021/05/26 11:05:56;;;;;;;0.75;0.65;;;22.70;69.40;;;;;;4998485;28;20037;-82
2021/05/26 11:08:31;;;;;;;1.13;0.40;;;22.60;67.20;;;;;;4981229;28;20476;-81
2021/05/26 11:10:57;;;;;;;0.82;0.70;;;20.70;66.00;;;;;;4980399;28;20486;-81
2021/05/26 11:13:22;;;;;;;0.88;0.73;;;20.90;66.00;;;;;;4994377;28;20057;-81
2021/05/26 11:15:54;;;;;;;2.25;0.43;;;20.70;67.10;;;;;;4962008;28;20034;-81
2021/05/26 11:20:47;;;;;;;3.53;0.40;;;21.00;67.10;;;;;;4981078;28;20030;-82
2021/05/26 11:23:14;;;;;;;1.08;0.77;;;20.90;65.20;;;;;;4995836;28;20089;-81
2021/05/26 11:25:54;;;;;;;1.60;0.90;;;21.20;64.90;;;;;;4983028;28;20037;-82
2021/05/26 11:28:26;;;;;;;0.50;0.50;;;21.10;64.60;;;;;;4982563;28;20057;-82
2021/05/26 11:31:07;;;;;;;0.60;0.40;;;21.70;64.40;;;;;;4984514;28;20030;-82
2021/05/26 11:33:32;;;;;;;2.13;0.40;;;22.00;64.00;;;;;;4998618;28;20460;-81
2021/05/26 11:36:09;;;;;;;0.60;0.60;;;21.80;65.00;;;;;;4969344;28;20565;-82
2021/05/26 11:38:35;;;;;;;1.27;0.50;;;22.60;68.70;;;;;;4994151;28;20169;-83
2021/05/26 11:41:02;;;;;;;0.50;0.45;;;22.60;62.80;;;;;;4987972;28;20465;-83
2021/05/26 11:43:31;;;;;;;1.10;0.30;;;23.10;62.00;;;;;;4997146;28;20034;-84
2021/05/26 11:46:06;;;;;;;0.65;0.47;;;23.00;61.60;;;;;;4970640;28;20081;-83
2021/05/26 11:48:32;;;;;;;1.35;0.50;;;23.10;58.50;;;;;;4980956;28;20516;-82
2021/05/26 11:50:57;;;;;;;0.65;0.50;;;22.70;58.40;;;;;;4984423;28;20030;-83
2021/05/26 11:53:23;;;;;;;1.23;0.60;;;22.90;61.00;;;;;;4973031;28;20029;-82
2021/05/26 11:55:49;;;;;;;0.60;0.60;;;23.50;64.00;;;;;;4994702;28;20042;-83
2021/05/26 11:58:29;;;;;;;1.00;0.52;;;23.70;59.50;;;;;;4977489;28;20173;-83
2021/05/26 12:01:02;;;;;;;0.40;0.40;;;24.10;62.10;;;;;;4985403;28;20042;-83
2021/05/26 12:03:29;;;;;;;1.80;0.60;;;24.30;63.60;;;;;;4979049;28;20026;-82
2021/05/26 12:05:56;;;;;;;0.55;0.50;;;24.10;60.00;;;;;;4977560;28;20029;-83
2021/05/26 12:08:26;;;;;;;2.10;0.90;;;24.40;63.10;;;;;;4973997;28;20027;-82
2021/05/26 12:11:11;;;;;;;1.13;0.40;;;24.00;59.60;;;;;;4995818;28;20030;-83
2021/05/26 12:13:41;;;;;;;1.30;0.50;;;24.30;60.00;;;;;;4980232;28;20057;-83
2021/05/26 12:16:11;;;;;;;3.45;0.70;;;24.50;58.50;;;;;;4967480;28;20550;-82
2021/05/26 12:18:38;;;;;;;0.52;0.52;;;24.60;58.50;;;;;;4976916;28;20038;-82
2021/05/26 12:21:04;;;;;;;1.35;0.40;;;24.30;59.50;;;;;;4967464;28;20044;-82
2021/05/26 12:23:30;;;;;;;0.68;0.30;;;24.40;61.50;;;;;;4992726;28;20072;-80
2021/05/26 12:25:56;;;;;;;1.40;0.50;;;24.20;58.20;;;;;;4984789;28;20038;-83
2021/05/26 12:28:22;;;;;;;0.60;0.52;;;24.10;58.80;;;;;;4975316;28;20196;-83
2021/05/26 12:30:49;;;;;;;1.92;0.77;;;23.80;58.20;;;;;;4983737;28;20038;-83
2021/05/26 12:33:22;;;;;;;0.40;0.40;;;24.00;60.30;;;;;;4984583;28;20026;-83
2021/05/26 12:35:59;;;;;;;0.65;0.57;;;23.40;59.30;;;;;;4977579;28;20413;-82
2021/05/26 12:38:25;;;;;;;0.50;0.50;;;23.40;60.80;;;;;;4995937;28;20026;-82
2021/05/26 12:40:50;;;;;;;0.82;0.50;;;23.60;61.20;;;;;;4981987;28;20034;-83
2021/05/26 12:43:26;;;;;;;0.75;0.43;;;23.70;59.10;;;;;;4964093;28;20433;-82
2021/05/26 12:45:52;;;;;;;2.05;0.60;;;23.70;61.70;;;;;;5001760;28;20037;-82
2021/05/26 12:48:18;;;;;;;0.95;0.50;;;23.70;61.50;;;;;;4992803;28;20513;-82
2021/05/26 12:50:44;;;;;;;1.05;0.68;;;23.30;60.00;;;;;;4996549;28;20030;-83
2021/05/26 12:53:11;;;;;;;0.65;0.50;;;22.00;60.80;;;;;;4978660;28;20165;-83
2021/05/26 12:55:37;;;;;;;0.70;0.70;;;22.30;63.80;;;;;;4974087;28;20084;-82
2021/05/26 12:58:03;;;;;;;0.88;0.50;;;22.10;64.10;;;;;;4968785;28;20394;-82
2021/05/26 13:00:29;;;;;;;0.85;0.60;;;22.10;63.40;;;;;;4960066;28;20655;-82